Terminal Aerodrome Forecast
Issued by NWS

Home | Current Version | Previous Version | Text Only | Print | Product List | Glossary On
Versions: 1 2 3 4 5 6 7 8 9 10 11 12 13 14
000
FTUS43 KIND 250500
TAFBMG
TAF
KBMG 250520Z 2506/2606 16010KT P6SM SCT050 BKN100
     FM250900 18013G21KT P6SM -SHRA VCTS SCT015CB OVC025
     FM251500 20013G21KT P6SM VCTS BKN025CB
     FM251900 21013G24KT P6SM BKN035
      AMD LTD TO CLD VIS AND WIND TIL 251300=

USA.gov is the U.S. government's official web portal to all federal, state and local government web resources and services.